Severn Bridge, Canada
Current Conditions -  °F | °C
As of 4:00 AM on Friday 31 Oct 2014 (Local Time) from CYQA Reporting Station
Light Rain Light Rain  
Wind Chill: 36°   Ceiling: 1700
Heat Index: 36°   Visibility: 9mi
Dew Point: 36°   Wind: 3mph
Humidity: 100%   Direction: 110°ESE
Pressure: 29.95"   Gusts: NA
Location:  44.77°N, 79.33°W
Report Text: CYQA 310800Z AUTO 11003KT 060V130 9SM -RA BKN017 BKN030 OVC050 02/02 A2995 RMK SLP152
Loading
Personal Weather Stations






























Interactive Weather Map
Tropical Storm Tracking
New forecast layout! Learn more

10-Day Weather Forecast

Advertisements
Track Severe Weather on mobile